createdAt,value
2022-12-29T00:00:18.796Z,6.30
2022-12-29T00:02:47.606Z,6.73
2022-12-29T00:05:17.764Z,6.00
2022-12-29T00:07:46.283Z,5.70
2022-12-29T00:10:14.943Z,5.57
2022-12-29T00:13:00.851Z,5.40
2022-12-29T00:15:41.676Z,6.70
2022-12-29T00:18:10.658Z,6.57
2022-12-29T00:21:06.790Z,6.43
2022-12-29T00:23:53.336Z,6.10
2022-12-29T00:26:39.590Z,5.67
2022-12-29T00:29:30.532Z,6.03
2022-12-29T00:32:16.683Z,5.30
2022-12-29T00:35:04.524Z,5.67
2022-12-29T00:37:48.399Z,6.00
2022-12-29T00:40:34.601Z,5.50
2022-12-29T00:43:20.859Z,5.90
2022-12-29T00:45:49.474Z,6.37
2022-12-29T00:48:38.778Z,6.17
2022-12-29T00:51:06.849Z,5.60
2022-12-29T00:53:37.527Z,6.10
2022-12-29T00:56:06.410Z,5.30
2022-12-29T00:58:35.947Z,5.97
2022-12-29T01:01:05.450Z,5.60
2022-12-29T01:03:35.635Z,5.33
2022-12-29T01:06:06.366Z,5.33
2022-12-29T01:08:37.181Z,5.67
2022-12-29T01:11:08.267Z,5.87
2022-12-29T01:13:39.137Z,5.07
2022-12-29T01:16:09.227Z,5.33
2022-12-29T01:18:37.782Z,5.43
2022-12-29T01:21:08.363Z,6.03
2022-12-29T01:23:38.324Z,5.43
2022-12-29T01:26:14.175Z,5.47
2022-12-29T01:28:42.924Z,6.10
2022-12-29T01:31:13.960Z,5.30
2022-12-29T01:33:43.302Z,5.90
2022-12-29T01:36:15.266Z,5.30
2022-12-29T01:38:46.599Z,5.60
2022-12-29T01:41:20.355Z,5.43
2022-12-29T01:43:51.922Z,5.53
2022-12-29T01:46:28.995Z,6.23
2022-12-29T01:49:07.553Z,5.97
2022-12-29T01:51:41.607Z,6.00
2022-12-29T01:54:17.852Z,5.50
2022-12-29T01:56:48.747Z,5.13
2022-12-29T01:59:23.441Z,5.63
2022-12-29T02:01:53.199Z,5.60
2022-12-29T02:04:22.137Z,5.83
2022-12-29T02:06:57.708Z,5.03
2022-12-29T02:09:28.004Z,6.20
2022-12-29T02:11:56.810Z,5.07
2022-12-29T02:14:25.772Z,5.40
2022-12-29T02:17:12.403Z,5.00
2022-12-29T02:20:35.112Z,5.70
2022-12-29T02:23:47.271Z,5.40
2022-12-29T02:26:41.353Z,5.83
2022-12-29T02:29:41.173Z,4.90
2022-12-29T02:32:22.484Z,5.40
2022-12-29T02:35:06.200Z,5.17
2022-12-29T02:37:46.396Z,6.00
2022-12-29T02:40:28.841Z,5.30
2022-12-29T02:43:10.407Z,6.40
2022-12-29T02:45:49.431Z,5.77
2022-12-29T02:48:30.078Z,5.10
2022-12-29T02:51:04.561Z,5.90
2022-12-29T02:53:55.670Z,6.20
2022-12-29T02:56:24.809Z,5.10
2022-12-29T02:58:54.325Z,5.13
2022-12-29T03:02:02.070Z,5.17
2022-12-29T03:04:41.631Z,4.60
2022-12-29T03:07:25.084Z,6.07
2022-12-29T03:10:06.833Z,5.40
2022-12-29T03:13:08.262Z,5.10
2022-12-29T03:16:05.177Z,5.40
2022-12-29T03:18:47.757Z,4.50
2022-12-29T03:21:48.534Z,4.67
2022-12-29T03:24:24.612Z,5.50
2022-12-29T03:26:59.141Z,5.00
2022-12-29T03:29:35.173Z,4.60
2022-12-29T03:32:06.996Z,4.63
2022-12-29T03:34:40.416Z,4.43
2022-12-29T03:37:16.829Z,4.53
2022-12-29T03:39:47.946Z,4.40
2022-12-29T03:42:22.966Z,5.00
2022-12-29T03:44:58.038Z,4.47
2022-12-29T03:47:27.629Z,4.37
2022-12-29T03:49:57.185Z,4.87
2022-12-29T03:52:27.185Z,4.93
2022-12-29T03:54:56.556Z,5.23
2022-12-29T03:57:25.329Z,5.13
2022-12-29T04:00:10.044Z,4.60
2022-12-29T04:02:47.365Z,4.83
2022-12-29T04:05:21.590Z,4.87
2022-12-29T04:07:53.422Z,5.00
2022-12-29T04:10:22.120Z,4.80
2022-12-29T04:12:53.709Z,4.67
2022-12-29T04:15:22.491Z,6.00
2022-12-29T04:17:51.168Z,4.40
2022-12-29T04:20:37.225Z,5.50
2022-12-29T04:23:10.238Z,4.37
2022-12-29T04:25:40.267Z,4.43
2022-12-29T04:28:10.906Z,4.00
2022-12-29T04:30:51.497Z,5.10
2022-12-29T04:33:23.503Z,4.60
2022-12-29T04:35:54.035Z,4.37
2022-12-29T04:38:26.042Z,4.27
2022-12-29T04:40:55.051Z,3.90
2022-12-29T04:43:25.671Z,4.33
2022-12-29T04:46:18.047Z,3.90
2022-12-29T04:49:15.969Z,4.60
2022-12-29T04:52:11.419Z,4.23
2022-12-29T04:54:41.796Z,4.00
2022-12-29T04:57:16.197Z,4.17
2022-12-29T04:59:47.319Z,4.80
2022-12-29T05:02:17.306Z,4.10
2022-12-29T05:04:48.569Z,4.40
2022-12-29T05:07:18.487Z,4.20
2022-12-29T05:09:50.131Z,5.03
2022-12-29T05:12:19.042Z,3.80
2022-12-29T05:14:59.888Z,3.50
2022-12-29T05:17:28.720Z,3.93
2022-12-29T05:19:57.653Z,4.10
2022-12-29T05:22:27.292Z,4.97
2022-12-29T05:24:58.658Z,4.67
2022-12-29T05:27:27.859Z,4.20
2022-12-29T05:30:13.503Z,3.60
2022-12-29T05:32:42.757Z,3.93
2022-12-29T05:35:11.544Z,3.30
2022-12-29T05:37:40.187Z,4.80
2022-12-29T05:40:13.144Z,3.90
2022-12-29T05:42:42.662Z,4.10
2022-12-29T05:45:31.108Z,3.63
2022-12-29T05:48:25.909Z,4.40
2022-12-29T05:51:20.827Z,4.10
2022-12-29T05:53:51.597Z,4.00
2022-12-29T05:56:21.745Z,4.63
2022-12-29T05:58:56.836Z,4.20
2022-12-29T06:01:26.328Z,4.10
2022-12-29T06:03:56.549Z,4.17
2022-12-29T06:06:25.301Z,4.10
2022-12-29T06:08:55.013Z,4.20
2022-12-29T06:11:25.087Z,4.67
2022-12-29T06:13:57.583Z,3.30
2022-12-29T06:16:26.854Z,4.57
2022-12-29T06:18:59.758Z,4.07
2022-12-29T06:21:28.395Z,4.63
2022-12-29T06:23:57.037Z,3.93
2022-12-29T06:26:27.038Z,4.10
2022-12-29T06:28:55.689Z,4.10
2022-12-29T06:31:24.744Z,4.33
2022-12-29T06:33:53.747Z,4.10
2022-12-29T06:36:22.293Z,3.83
2022-12-29T06:38:53.417Z,4.10
2022-12-29T06:41:26.922Z,4.20
2022-12-29T06:44:32.501Z,4.10
2022-12-29T06:47:08.520Z,3.67
2022-12-29T06:49:37.321Z,3.70
2022-12-29T06:52:12.516Z,4.10
2022-12-29T06:54:41.737Z,3.93
2022-12-29T06:57:10.245Z,3.60
2022-12-29T06:59:40.286Z,4.30
2022-12-29T07:02:09.393Z,3.77
2022-12-29T07:04:38.067Z,4.13
2022-12-29T07:07:06.595Z,3.50
2022-12-29T07:09:35.780Z,3.87
2022-12-29T07:12:04.489Z,3.57
2022-12-29T07:14:39.051Z,3.93
2022-12-29T07:17:12.663Z,3.90
2022-12-29T07:19:41.242Z,3.90
2022-12-29T07:22:11.469Z,3.77
2022-12-29T07:24:41.480Z,3.30
2022-12-29T07:27:11.477Z,3.93
2022-12-29T07:29:40.309Z,2.70
2022-12-29T07:32:08.919Z,4.47
2022-12-29T07:34:40.622Z,3.50
2022-12-29T07:37:09.474Z,4.07
2022-12-29T07:39:38.037Z,3.67
2022-12-29T07:42:06.702Z,3.67
2022-12-29T07:44:46.360Z,4.67
2022-12-29T07:47:18.541Z,4.90
2022-12-29T07:49:48.625Z,3.80
2022-12-29T07:52:17.451Z,5.17
2022-12-29T07:54:46.350Z,5.80
2022-12-29T07:57:15.052Z,4.17
2022-12-29T07:59:44.336Z,4.90
2022-12-29T08:02:13.495Z,4.10
2022-12-29T08:04:42.332Z,3.97
2022-12-29T08:07:12.398Z,4.30
2022-12-29T08:09:41.232Z,5.73
2022-12-29T08:12:12.624Z,4.77
2022-12-29T08:14:41.369Z,4.30
2022-12-29T08:17:10.025Z,4.10
2022-12-29T08:19:38.983Z,4.60
2022-12-29T08:22:07.739Z,3.90
2022-12-29T08:24:37.849Z,3.77
2022-12-29T08:27:14.670Z,4.13
2022-12-29T08:29:48.567Z,4.80
2022-12-29T08:32:18.040Z,4.13
2022-12-29T08:34:48.012Z,4.37
2022-12-29T08:37:16.843Z,3.93
2022-12-29T08:39:46.919Z,3.77
2022-12-29T08:42:16.001Z,3.80
2022-12-29T08:44:44.818Z,4.03
2022-12-29T08:47:14.496Z,3.93
2022-12-29T08:49:43.092Z,3.70
2022-12-29T08:52:11.801Z,4.33
2022-12-29T08:54:40.505Z,4.87
2022-12-29T08:57:10.783Z,3.70
2022-12-29T08:59:47.451Z,4.20
2022-12-29T09:02:23.854Z,3.80
2022-12-29T09:04:54.605Z,3.83
2022-12-29T09:07:23.572Z,5.70
2022-12-29T09:09:52.957Z,4.83
2022-12-29T09:12:23.099Z,4.30
2022-12-29T09:14:52.740Z,4.67
2022-12-29T09:17:38.873Z,6.23
2022-12-29T09:20:09.756Z,4.30
2022-12-29T09:22:38.797Z,4.10
2022-12-29T09:25:09.363Z,3.63
2022-12-29T09:27:39.781Z,3.97
2022-12-29T09:30:12.309Z,3.77
2022-12-29T09:32:45.099Z,3.33
2022-12-29T09:35:15.046Z,3.70
2022-12-29T09:37:43.839Z,3.97
2022-12-29T09:40:27.344Z,2.90
2022-12-29T09:43:33.951Z,3.60
2022-12-29T09:46:19.499Z,3.97
2022-12-29T09:48:58.049Z,3.23
2022-12-29T09:51:28.090Z,4.20
2022-12-29T09:54:03.751Z,3.97
2022-12-29T09:56:32.526Z,3.27
2022-12-29T09:59:14.373Z,4.33
2022-12-29T10:01:51.655Z,3.60
2022-12-29T10:04:20.652Z,4.47
2022-12-29T10:10:04.121Z,4.20
2022-12-29T10:12:52.641Z,3.57
2022-12-29T10:15:42.667Z,3.40
2022-12-29T10:18:40.058Z,4.80
2022-12-29T10:21:24.599Z,4.00
2022-12-29T10:23:55.727Z,3.83
2022-12-29T10:26:31.141Z,4.13
2022-12-29T10:29:05.882Z,3.80
2022-12-29T10:31:43.535Z,3.97
2022-12-29T10:34:22.849Z,3.30
2022-12-29T10:37:01.211Z,4.13
2022-12-29T10:39:39.149Z,3.97
2022-12-29T10:42:15.951Z,4.10
2022-12-29T10:44:44.992Z,3.53
2022-12-29T10:47:23.112Z,3.80
2022-12-29T10:49:53.016Z,3.93
2022-12-29T10:52:25.129Z,3.70
2022-12-29T10:55:01.233Z,3.53
2022-12-29T10:57:36.110Z,3.10
2022-12-29T11:00:16.113Z,3.67
2022-12-29T11:03:14.833Z,3.83
2022-12-29T11:05:51.865Z,3.60
2022-12-29T11:08:26.715Z,3.33
2022-12-29T11:11:03.141Z,3.80
2022-12-29T11:13:38.874Z,3.20
2022-12-29T11:16:08.779Z,4.70
2022-12-29T11:18:43.574Z,4.53
2022-12-29T11:21:34.407Z,3.63
2022-12-29T11:24:05.387Z,3.90
2022-12-29T11:26:35.405Z,3.30
2022-12-29T11:29:25.318Z,3.30
2022-12-29T11:31:57.018Z,3.93
2022-12-29T11:34:33.807Z,3.27
2022-12-29T11:37:08.684Z,4.00
2022-12-29T11:39:47.025Z,3.53
2022-12-29T11:42:20.303Z,3.40
2022-12-29T11:44:52.174Z,2.77
2022-12-29T11:47:33.378Z,3.10
2022-12-29T11:50:09.230Z,3.80
2022-12-29T11:52:41.722Z,3.33
2022-12-29T11:55:23.031Z,3.47
2022-12-29T11:57:57.834Z,3.27
2022-12-29T12:00:35.405Z,2.80
2022-12-29T12:03:14.548Z,3.60
2022-12-29T12:05:53.742Z,2.90
2022-12-29T12:08:35.778Z,3.03
2022-12-29T12:11:14.204Z,3.53
2022-12-29T12:14:01.708Z,2.90
2022-12-29T12:16:53.574Z,2.80
2022-12-29T12:19:41.525Z,3.33
2022-12-29T12:22:24.526Z,3.33
2022-12-29T12:25:01.360Z,3.50
2022-12-29T12:27:41.107Z,4.00
2022-12-29T12:30:19.131Z,3.70
2022-12-29T12:32:57.726Z,3.50
2022-12-29T12:35:39.694Z,3.40
2022-12-29T12:38:33.460Z,4.07
2022-12-29T12:41:19.798Z,3.63
2022-12-29T12:43:59.893Z,3.93
2022-12-29T12:47:20.621Z,3.03
2022-12-29T12:50:34.453Z,3.90
2022-12-29T12:53:39.241Z,2.97
2022-12-29T12:56:28.919Z,3.83
2022-12-29T12:59:10.320Z,5.40
2022-12-29T13:01:53.198Z,7.60
2022-12-29T13:04:46.388Z,6.03
2022-12-29T13:07:29.430Z,3.67
2022-12-29T13:10:21.622Z,3.00
2022-12-29T13:13:14.616Z,4.93
2022-12-29T13:15:52.649Z,5.23
2022-12-29T13:18:34.088Z,3.60
2022-12-29T13:21:15.852Z,3.47
2022-12-29T13:23:57.867Z,3.60
2022-12-29T13:26:34.818Z,2.80
2022-12-29T13:29:18.458Z,3.10
2022-12-29T13:31:58.544Z,2.60
2022-12-29T13:34:46.763Z,2.97
2022-12-29T13:37:20.657Z,3.80
2022-12-29T13:39:57.383Z,4.37
2022-12-29T13:42:28.548Z,4.60
2022-12-29T13:45:04.314Z,3.87
2022-12-29T13:47:39.840Z,4.57
2022-12-29T13:50:18.014Z,3.90
2022-12-29T13:52:56.670Z,3.67
2022-12-29T13:55:34.271Z,4.90
2022-12-29T13:58:11.595Z,3.43
2022-12-29T14:00:54.119Z,3.20
2022-12-29T14:03:51.910Z,2.90
2022-12-29T14:06:28.680Z,3.13
2022-12-29T14:09:01.748Z,2.90
2022-12-29T14:11:37.480Z,3.63
2022-12-29T14:14:19.741Z,3.33
2022-12-29T14:16:51.359Z,2.70
2022-12-29T14:19:28.398Z,2.90
2022-12-29T14:22:01.746Z,3.70
2022-12-29T14:24:43.314Z,2.80
2022-12-29T14:27:54.839Z,3.90
2022-12-29T14:31:00.644Z,3.03
2022-12-29T14:33:34.292Z,3.03
2022-12-29T14:36:23.301Z,3.80
2022-12-29T14:38:52.164Z,3.93
2022-12-29T14:41:31.237Z,3.60
2022-12-29T14:44:12.580Z,3.17
2022-12-29T14:46:56.644Z,3.97
2022-12-29T14:49:31.877Z,4.97
2022-12-29T14:52:16.368Z,3.97
2022-12-29T14:54:55.872Z,3.00
2022-12-29T14:57:34.958Z,2.93
2022-12-29T15:00:21.738Z,2.90
2022-12-29T15:03:04.773Z,2.77
2022-12-29T15:05:43.578Z,3.03
2022-12-29T15:08:15.346Z,2.80
2022-12-29T15:10:53.643Z,4.00
2022-12-29T15:13:27.507Z,4.50
2022-12-29T15:15:56.407Z,3.37
2022-12-29T15:18:28.798Z,3.20
2022-12-29T15:21:02.728Z,3.20
2022-12-29T15:23:35.764Z,3.20
2022-12-29T15:26:09.738Z,4.20
2022-12-29T15:28:44.021Z,3.70
2022-12-29T15:31:17.220Z,4.77
2022-12-29T15:33:49.526Z,4.10
2022-12-29T15:36:25.394Z,4.27
2022-12-29T15:38:55.138Z,4.80
2022-12-29T15:41:57.091Z,4.10
2022-12-29T15:44:32.190Z,4.60
2022-12-29T15:47:05.204Z,5.50
2022-12-29T15:49:34.637Z,5.23
2022-12-29T15:52:09.776Z,4.60
2022-12-29T15:54:40.022Z,5.23
2022-12-29T15:57:25.737Z,4.90
2022-12-29T15:59:55.891Z,5.90
2022-12-29T16:02:26.456Z,5.60
2022-12-29T16:07:58.155Z,6.30
2022-12-29T16:10:37.819Z,5.60
2022-12-29T16:13:20.164Z,5.60
2022-12-29T16:15:50.158Z,5.07
2022-12-29T16:18:28.365Z,5.17
2022-12-29T16:20:59.410Z,12.43
2022-12-29T16:23:31.971Z,9.33
2022-12-29T16:26:01.583Z,8.40
2022-12-29T16:28:43.125Z,8.70
2022-12-29T16:31:23.768Z,7.63
2022-12-29T16:33:55.116Z,8.40
2022-12-29T16:36:36.030Z,9.47
2022-12-29T16:39:38.658Z,9.20
2022-12-29T16:42:51.920Z,9.07
2022-12-29T16:46:18.675Z,9.77
2022-12-29T16:48:53.577Z,9.00
2022-12-29T16:51:37.485Z,8.27
2022-12-29T16:54:08.309Z,7.53
2022-12-29T16:56:39.810Z,8.47
2022-12-29T16:59:25.941Z,8.37
2022-12-29T17:01:54.696Z,7.73
2022-12-29T17:04:23.479Z,8.10
2022-12-29T17:06:52.013Z,10.10
2022-12-29T17:09:23.262Z,10.87
2022-12-29T17:12:02.600Z,9.90
2022-12-29T17:14:44.269Z,7.30
2022-12-29T17:17:22.725Z,10.07
2022-12-29T17:19:59.745Z,8.67
2022-12-29T17:22:32.719Z,13.93
2022-12-29T17:25:04.050Z,9.73
2022-12-29T17:27:39.971Z,11.90
2022-12-29T17:30:15.681Z,7.30
2022-12-29T17:32:48.394Z,7.67
2022-12-29T17:35:18.749Z,7.23
2022-12-29T17:37:48.037Z,8.10
2022-12-29T17:40:20.200Z,6.57
2022-12-29T17:42:54.543Z,5.50
2022-12-29T17:45:27.466Z,5.80
2022-12-29T17:47:56.815Z,7.97
2022-12-29T17:50:29.817Z,7.60
2022-12-29T17:53:04.160Z,10.10
2022-12-29T17:55:38.538Z,10.40
2022-12-29T17:58:21.629Z,13.10
2022-12-29T18:00:53.818Z,9.20
2022-12-29T18:03:29.439Z,7.50
2022-12-29T18:05:59.284Z,7.47
2022-12-29T18:08:29.469Z,8.80
2022-12-29T18:10:59.863Z,7.83
2022-12-29T18:13:45.539Z,7.17
2022-12-29T18:16:15.983Z,4.90
2022-12-29T18:18:46.222Z,4.40
2022-12-29T18:21:19.547Z,4.70
2022-12-29T18:23:49.519Z,4.17
2022-12-29T18:26:28.049Z,4.93
2022-12-29T18:29:00.157Z,4.80
2022-12-29T18:31:31.101Z,4.90
2022-12-29T18:34:02.208Z,4.00
2022-12-29T18:36:30.977Z,5.37
2022-12-29T18:38:59.914Z,3.57
2022-12-29T18:41:30.748Z,3.80
2022-12-29T18:44:01.705Z,4.23
2022-12-29T18:46:31.146Z,5.00
2022-12-29T18:48:59.904Z,7.00
2022-12-29T18:51:29.285Z,6.40
2022-12-29T18:53:58.245Z,4.70
2022-12-29T18:56:27.300Z,4.70
2022-12-29T18:58:56.887Z,3.60
2022-12-29T19:01:31.241Z,4.07
2022-12-29T19:04:00.448Z,3.90
2022-12-29T19:06:29.527Z,4.77
2022-12-29T19:08:58.488Z,4.30
2022-12-29T19:11:27.694Z,4.90
2022-12-29T19:13:56.769Z,5.30
2022-12-29T19:16:27.208Z,5.97
2022-12-29T19:19:09.082Z,5.50
2022-12-29T19:21:39.269Z,5.50
2022-12-29T19:24:08.504Z,5.37
2022-12-29T19:26:40.584Z,5.60
2022-12-29T19:29:16.335Z,5.30
2022-12-29T19:31:47.875Z,6.80
2022-12-29T19:34:18.603Z,6.27
2022-12-29T19:36:48.097Z,6.90
2022-12-29T19:39:17.034Z,6.60
2022-12-29T19:41:45.905Z,5.53
2022-12-29T19:44:14.852Z,5.97
2022-12-29T19:46:43.552Z,6.00
2022-12-29T19:49:14.282Z,5.50
2022-12-29T19:51:42.895Z,6.57
2022-12-29T19:54:11.668Z,6.43
2022-12-29T19:56:43.320Z,6.93
2022-12-29T19:59:12.512Z,7.07
2022-12-29T20:01:41.390Z,5.73
2022-12-29T20:04:10.267Z,6.07
2022-12-29T20:06:40.433Z,6.30
2022-12-29T20:09:09.108Z,7.17
2022-12-29T20:11:38.048Z,8.40
2022-12-29T20:14:06.917Z,7.70
2022-12-29T20:21:06.819Z,9.77
2022-12-29T20:23:39.613Z,9.23
2022-12-29T20:26:09.974Z,7.57
2022-12-29T20:28:38.390Z,7.90
2022-12-29T20:31:14.495Z,7.70
2022-12-29T20:33:43.320Z,8.07
2022-12-29T20:36:16.131Z,8.27
2022-12-29T20:38:47.479Z,7.97
2022-12-29T20:41:16.512Z,8.37
2022-12-29T20:43:45.073Z,7.70
2022-12-29T20:46:18.161Z,7.10
2022-12-29T20:48:49.378Z,6.40
2022-12-29T20:51:18.305Z,7.37
2022-12-29T20:53:49.357Z,9.20
2022-12-29T20:56:24.617Z,7.27
2022-12-29T21:01:43.912Z,13.73
2022-12-29T21:04:13.637Z,11.13
2022-12-29T21:06:42.128Z,8.80
2022-12-29T21:09:12.080Z,7.50
2022-12-29T21:11:40.890Z,9.33
2022-12-29T21:14:09.621Z,14.40
2022-12-29T21:16:38.257Z,18.87
2022-12-29T21:19:06.956Z,17.80
2022-12-29T21:21:35.783Z,17.30
2022-12-29T21:24:06.369Z,9.40
2022-12-29T21:26:36.387Z,9.33
2022-12-29T21:29:05.268Z,7.70
2022-12-29T21:31:36.083Z,7.70
2022-12-29T21:34:06.736Z,6.70
2022-12-29T21:36:35.732Z,6.73
2022-12-29T21:39:05.082Z,6.90
2022-12-29T21:41:35.593Z,6.97
2022-12-29T21:44:21.557Z,7.10
2022-12-29T21:46:49.934Z,8.00
2022-12-29T21:49:18.401Z,11.50
2022-12-29T21:51:54.016Z,10.67
2022-12-29T21:54:43.434Z,11.00
2022-12-29T21:58:26.434Z,11.77
2022-12-29T22:01:14.826Z,9.50
2022-12-29T22:04:00.951Z,11.33
2022-12-29T22:06:47.524Z,13.13
2022-12-29T22:09:37.389Z,13.10
2022-12-29T22:12:28.106Z,12.53
2022-12-29T22:14:56.643Z,13.23
2022-12-29T22:17:28.872Z,11.70
2022-12-29T22:19:58.081Z,9.27
2022-12-29T22:22:26.582Z,8.27
2022-12-29T22:24:55.120Z,7.70
2022-12-29T22:27:23.514Z,7.10
2022-12-29T22:29:51.935Z,7.67
2022-12-29T22:32:20.808Z,7.27
2022-12-29T22:34:50.735Z,7.57
2022-12-29T22:37:19.702Z,8.67
2022-12-29T22:39:48.153Z,8.63
2022-12-29T22:42:16.775Z,8.23
2022-12-29T22:44:45.321Z,9.30
2022-12-29T22:47:13.909Z,7.80
2022-12-29T22:49:42.456Z,6.97
2022-12-29T22:52:14.405Z,8.97
2022-12-29T22:54:42.969Z,7.87
2022-12-29T22:57:11.483Z,7.73
2022-12-29T22:59:40.136Z,9.43
2022-12-29T23:02:08.906Z,9.47
2022-12-29T23:07:27.703Z,14.40
2022-12-29T23:09:56.278Z,11.87
2022-12-29T23:12:24.746Z,10.57
2022-12-29T23:14:53.157Z,10.30
2022-12-29T23:17:21.627Z,9.97
2022-12-29T23:19:50.071Z,10.17
2022-12-29T23:22:18.576Z,9.60
2022-12-29T23:24:48.409Z,10.40
2022-12-29T23:27:16.914Z,11.67
2022-12-29T23:29:45.571Z,12.00
2022-12-29T23:32:14.128Z,10.53
2022-12-29T23:34:42.574Z,9.10
2022-12-29T23:37:11.409Z,9.93
2022-12-29T23:39:40.067Z,9.30
2022-12-29T23:42:11.275Z,10.83
2022-12-29T23:44:39.754Z,9.53
2022-12-29T23:47:08.368Z,11.57
2022-12-29T23:49:36.891Z,10.87
2022-12-29T23:52:05.355Z,9.67
2022-12-29T23:54:34.127Z,9.50
2022-12-29T23:57:02.603Z,10.17
2022-12-29T23:59:32.728Z,9.97
